sensor_id;sensor_type;location;lat;lon;timestamp;pressure;altitude;pressure_sealevel;temperature;humidity
13732;BME280;6937;56.096;12.664;2022-08-21T00:02:17;103017.13;;;17.35;100.00
13732;BME280;6937;56.096;12.664;2022-08-21T00:04:43;103001.00;;;17.34;100.00
13732;BME280;6937;56.096;12.664;2022-08-21T00:07:09;102993.09;;;17.31;100.00
13732;BME280;6937;56.096;12.664;2022-08-21T00:09:34;103013.19;;;17.27;100.00
13732;BME280;6937;56.096;12.664;2022-08-21T00:12:00;103006.31;;;17.21;100.00
13732;BME280;6937;56.096;12.664;2022-08-21T00:14:25;102957.53;;;16.96;100.00
13732;BME280;6937;56.096;12.664;2022-08-21T00:16:51;103001.34;;;17.01;100.00
13732;BME280;6937;56.096;12.664;2022-08-21T00:19:16;103054.13;;;16.92;100.00
13732;BME280;6937;56.096;12.664;2022-08-21T00:21:41;103129.38;;;16.99;100.00
13732;BME280;6937;56.096;12.664;2022-08-21T00:24:07;103163.38;;;17.03;100.00
13732;BME280;6937;56.096;12.664;2022-08-21T00:26:32;103205.38;;;17.08;100.00
13732;BME280;6937;56.096;12.664;2022-08-21T00:28:58;103141.19;;;16.98;100.00
13732;BME280;6937;56.096;12.664;2022-08-21T00:31:23;103149.63;;;16.91;100.00
13732;BME280;6937;56.096;12.664;2022-08-21T00:33:48;103173.28;;;16.88;100.00
13732;BME280;6937;56.096;12.664;2022-08-21T00:36:14;103195.00;;;16.86;100.00
13732;BME280;6937;56.096;12.664;2022-08-21T00:38:40;103224.88;;;16.83;100.00
13732;BME280;6937;56.096;12.664;2022-08-21T00:41:08;103226.63;;;16.84;100.00
13732;BME280;6937;56.096;12.664;2022-08-21T00:43:36;103182.59;;;16.68;100.00
13732;BME280;6937;56.096;12.664;2022-08-21T00:46:03;103237.31;;;16.72;100.00
13732;BME280;6937;56.096;12.664;2022-08-21T00:48:30;103301.94;;;16.75;100.00
13732;BME280;6937;56.096;12.664;2022-08-21T00:50:59;103340.25;;;16.81;100.00
13732;BME280;6937;56.096;12.664;2022-08-21T00:53:27;103377.72;;;16.87;100.00
13732;BME280;6937;56.096;12.664;2022-08-21T00:55:54;103347.16;;;16.87;100.00
13732;BME280;6937;56.096;12.664;2022-08-21T00:58:21;103364.13;;;16.89;100.00
13732;BME280;6937;56.096;12.664;2022-08-21T01:00:48;103376.69;;;16.90;100.00
13732;BME280;6937;56.096;12.664;2022-08-21T01:03:18;103354.47;;;16.85;100.00
13732;BME280;6937;56.096;12.664;2022-08-21T01:05:45;103348.56;;;16.78;100.00
13732;BME280;6937;56.096;12.664;2022-08-21T01:08:12;103363.38;;;16.71;100.00
13732;BME280;6937;56.096;12.664;2022-08-21T01:10:41;103411.13;;;16.71;100.00
13732;BME280;6937;56.096;12.664;2022-08-21T01:13:09;103485.69;;;16.73;100.00
13732;BME280;6937;56.096;12.664;2022-08-21T01:15:38;103519.94;;;16.73;100.00
13732;BME280;6937;56.096;12.664;2022-08-21T01:18:06;103555.91;;;16.73;100.00
13732;BME280;6937;56.096;12.664;2022-08-21T01:20:32;103546.22;;;16.69;100.00
13732;BME280;6937;56.096;12.664;2022-08-21T01:23:01;103588.25;;;16.75;100.00
13732;BME280;6937;56.096;12.664;2022-08-21T01:25:27;103582.31;;;16.68;100.00
13732;BME280;6937;56.096;12.664;2022-08-21T01:27:52;103639.59;;;16.75;100.00
13732;BME280;6937;56.096;12.664;2022-08-21T01:30:22;103655.47;;;16.81;100.00
13732;BME280;6937;56.096;12.664;2022-08-21T01:32:49;103637.59;;;16.78;100.00
13732;BME280;6937;56.096;12.664;2022-08-21T01:35:17;103692.34;;;16.82;100.00
13732;BME280;6937;56.096;12.664;2022-08-21T01:37:43;103707.22;;;16.90;100.00
13732;BME280;6937;56.096;12.664;2022-08-21T01:40:09;103713.06;;;16.99;100.00
13732;BME280;6937;56.096;12.664;2022-08-21T01:42:36;103704.00;;;17.00;100.00
13732;BME280;6937;56.096;12.664;2022-08-21T01:45:02;103699.66;;;16.97;100.00
13732;BME280;6937;56.096;12.664;2022-08-21T01:47:28;103715.59;;;16.84;100.00
13732;BME280;6937;56.096;12.664;2022-08-21T01:49:53;103773.06;;;16.88;100.00
13732;BME280;6937;56.096;12.664;2022-08-21T01:52:19;103822.25;;;16.77;100.00
13732;BME280;6937;56.096;12.664;2022-08-21T01:54:44;103864.75;;;16.74;100.00
13732;BME280;6937;56.096;12.664;2022-08-21T01:57:11;104009.03;;;16.88;100.00
13732;BME280;6937;56.096;12.664;2022-08-21T01:59:37;104140.69;;;16.85;100.00
13732;BME280;6937;56.096;12.664;2022-08-21T02:02:03;104272.16;;;16.86;100.00
13732;BME280;6937;56.096;12.664;2022-08-21T02:04:29;104387.34;;;16.88;100.00
13732;BME280;6937;56.096;12.664;2022-08-21T02:06:55;104509.81;;;16.90;100.00
13732;BME280;6937;56.096;12.664;2022-08-21T02:09:21;104345.50;;;16.77;100.00
13732;BME280;6937;56.096;12.664;2022-08-21T02:11:47;104308.56;;;16.77;100.00
13732;BME280;6937;56.096;12.664;2022-08-21T02:14:14;104297.00;;;16.74;100.00
13732;BME280;6937;56.096;12.664;2022-08-21T02:16:41;104307.00;;;16.72;100.00
13732;BME280;6937;56.096;12.664;2022-08-21T02:19:08;104340.28;;;16.72;100.00
13732;BME280;6937;56.096;12.664;2022-08-21T02:21:34;104317.19;;;16.65;100.00
13732;BME280;6937;56.096;12.664;2022-08-21T02:24:00;104354.09;;;16.65;100.00
13732;BME280;6937;56.096;12.664;2022-08-21T02:26:25;104390.38;;;16.59;100.00
13732;BME280;6937;56.096;12.664;2022-08-21T02:28:51;104408.22;;;16.63;100.00
13732;BME280;6937;56.096;12.664;2022-08-21T02:31:17;104453.00;;;16.69;100.00
13732;BME280;6937;56.096;12.664;2022-08-21T02:33:42;104449.25;;;16.73;100.00
13732;BME280;6937;56.096;12.664;2022-08-21T02:36:09;104439.00;;;16.59;100.00
13732;BME280;6937;56.096;12.664;2022-08-21T02:38:37;104483.59;;;16.69;100.00
13732;BME280;6937;56.096;12.664;2022-08-21T02:41:08;104515.91;;;16.72;100.00
13732;BME280;6937;56.096;12.664;2022-08-21T02:43:34;104552.13;;;16.68;100.00
13732;BME280;6937;56.096;12.664;2022-08-21T02:46:02;104633.97;;;16.70;100.00
13732;BME280;6937;56.096;12.664;2022-08-21T02:48:30;104687.41;;;16.62;100.00
13732;BME280;6937;56.096;12.664;2022-08-21T02:51:11;104768.69;;;16.56;100.00
13732;BME280;6937;56.096;12.664;2022-08-21T02:53:37;104787.38;;;16.34;100.00
13732;BME280;6937;56.096;12.664;2022-08-21T02:56:06;104850.34;;;16.35;100.00
13732;BME280;6937;56.096;12.664;2022-08-21T02:58:35;104913.78;;;16.22;100.00
13732;BME280;6937;56.096;12.664;2022-08-21T03:01:02;104912.81;;;15.93;100.00
13732;BME280;6937;56.096;12.664;2022-08-21T03:03:28;105014.44;;;15.96;100.00
13732;BME280;6937;56.096;12.664;2022-08-21T03:05:55;105056.00;;;15.89;100.00
13732;BME280;6937;56.096;12.664;2022-08-21T03:08:21;105146.13;;;15.82;100.00
13732;BME280;6937;56.096;12.664;2022-08-21T03:10:49;105268.25;;;15.90;100.00
13732;BME280;6937;56.096;12.664;2022-08-21T03:13:16;105169.34;;;15.52;100.00
13732;BME280;6937;56.096;12.664;2022-08-21T03:15:41;105364.66;;;15.83;100.00
13732;BME280;6937;56.096;12.664;2022-08-21T03:18:08;105432.94;;;15.88;100.00
13732;BME280;6937;56.096;12.664;2022-08-21T03:20:35;105473.19;;;16.01;100.00
13732;BME280;6937;56.096;12.664;2022-08-21T03:23:02;105431.66;;;16.08;100.00
13732;BME280;6937;56.096;12.664;2022-08-21T03:25:29;105364.09;;;16.09;100.00
13732;BME280;6937;56.096;12.664;2022-08-21T03:27:57;105269.56;;;16.11;100.00
13732;BME280;6937;56.096;12.664;2022-08-21T03:30:23;105252.50;;;16.10;100.00
13732;BME280;6937;56.096;12.664;2022-08-21T03:32:48;105194.13;;;16.05;100.00
13732;BME280;6937;56.096;12.664;2022-08-21T03:35:14;105235.88;;;16.27;100.00
13732;BME280;6937;56.096;12.664;2022-08-21T03:37:40;105228.19;;;16.46;100.00
13732;BME280;6937;56.096;12.664;2022-08-21T03:40:12;105199.97;;;16.57;100.00
13732;BME280;6937;56.096;12.664;2022-08-21T03:42:38;105137.69;;;16.62;100.00
13732;BME280;6937;56.096;12.664;2022-08-21T03:45:05;105083.63;;;16.63;100.00
13732;BME280;6937;56.096;12.664;2022-08-21T03:47:31;105073.66;;;16.65;100.00
13732;BME280;6937;56.096;12.664;2022-08-21T03:49:56;105037.69;;;16.63;100.00
13732;BME280;6937;56.096;12.664;2022-08-21T03:52:22;105043.94;;;16.65;100.00
13732;BME280;6937;56.096;12.664;2022-08-21T03:54:48;105044.56;;;16.75;100.00
13732;BME280;6937;56.096;12.664;2022-08-21T03:57:15;105010.16;;;16.80;100.00
13732;BME280;6937;56.096;12.664;2022-08-21T03:59:40;104994.47;;;16.91;100.00
13732;BME280;6937;56.096;12.664;2022-08-21T04:02:08;104937.56;;;16.96;100.00
13732;BME280;6937;56.096;12.664;2022-08-21T04:04:34;104885.56;;;16.87;100.00
13732;BME280;6937;56.096;12.664;2022-08-21T04:07:00;104842.03;;;16.97;100.00
13732;BME280;6937;56.096;12.664;2022-08-21T04:09:26;104800.63;;;16.95;100.00
13732;BME280;6937;56.096;12.664;2022-08-21T04:11:52;104777.00;;;17.01;100.00
13732;BME280;6937;56.096;12.664;2022-08-21T04:14:17;104763.09;;;17.12;100.00
13732;BME280;6937;56.096;12.664;2022-08-21T04:16:44;104711.75;;;17.10;100.00
13732;BME280;6937;56.096;12.664;2022-08-21T04:19:10;104635.81;;;16.93;100.00
13732;BME280;6937;56.096;12.664;2022-08-21T04:21:36;104659.88;;;17.24;100.00
13732;BME280;6937;56.096;12.664;2022-08-21T04:24:02;104610.78;;;17.34;100.00
13732;BME280;6937;56.096;12.664;2022-08-21T04:26:28;104532.25;;;17.36;100.00
13732;BME280;6937;56.096;12.664;2022-08-21T04:28:53;104491.38;;;17.44;100.00
13732;BME280;6937;56.096;12.664;2022-08-21T04:31:23;104447.09;;;17.46;100.00
13732;BME280;6937;56.096;12.664;2022-08-21T04:33:48;104405.44;;;17.50;100.00
13732;BME280;6937;56.096;12.664;2022-08-21T04:36:13;104352.88;;;17.56;100.00
13732;BME280;6937;56.096;12.664;2022-08-21T04:38:38;104338.16;;;17.63;100.00
13732;BME280;6937;56.096;12.664;2022-08-21T04:41:04;104283.84;;;17.67;100.00
13732;BME280;6937;56.096;12.664;2022-08-21T04:43:32;104275.31;;;17.76;100.00
13732;BME280;6937;56.096;12.664;2022-08-21T04:45:57;104206.66;;;17.77;100.00
13732;BME280;6937;56.096;12.664;2022-08-21T04:48:25;104176.78;;;17.80;100.00
13732;BME280;6937;56.096;12.664;2022-08-21T04:51:09;104126.09;;;17.84;100.00
13732;BME280;6937;56.096;12.664;2022-08-21T04:53:47;104104.06;;;17.92;100.00
13732;BME280;6937;56.096;12.664;2022-08-21T04:56:20;104092.19;;;17.94;100.00
13732;BME280;6937;56.096;12.664;2022-08-21T04:58:47;104068.31;;;18.02;100.00
13732;BME280;6937;56.096;12.664;2022-08-21T05:01:18;104016.16;;;17.99;100.00
13732;BME280;6937;56.096;12.664;2022-08-21T05:03:45;104007.84;;;18.19;100.00
13732;BME280;6937;56.096;12.664;2022-08-21T05:06:12;104007.44;;;18.44;100.00
13732;BME280;6937;56.096;12.664;2022-08-21T05:08:41;103869.72;;;18.36;100.00
13732;BME280;6937;56.096;12.664;2022-08-21T05:11:09;103796.22;;;18.42;100.00
13732;BME280;6937;56.096;12.664;2022-08-21T05:13:35;103755.25;;;18.48;100.00
13732;BME280;6937;56.096;12.664;2022-08-21T05:16:00;103664.00;;;18.49;100.00
13732;BME280;6937;56.096;12.664;2022-08-21T05:18:26;103545.00;;;18.46;100.00
13732;BME280;6937;56.096;12.664;2022-08-21T05:20:51;103474.03;;;18.55;100.00
13732;BME280;6937;56.096;12.664;2022-08-21T05:23:17;103328.81;;;18.52;100.00
13732;BME280;6937;56.096;12.664;2022-08-21T05:25:43;103218.69;;;18.65;100.00
13732;BME280;6937;56.096;12.664;2022-08-21T05:28:08;103092.66;;;18.72;100.00
13732;BME280;6937;56.096;12.664;2022-08-21T05:30:34;102935.19;;;18.77;100.00
13732;BME280;6937;56.096;12.664;2022-08-21T05:33:02;102777.25;;;18.75;100.00
13732;BME280;6937;56.096;12.664;2022-08-21T05:35:29;102625.78;;;18.72;100.00
13732;BME280;6937;56.096;12.664;2022-08-21T05:37:56;102469.66;;;18.71;100.00
13732;BME280;6937;56.096;12.664;2022-08-21T05:40:22;102344.03;;;18.83;100.00
13732;BME280;6937;56.096;12.664;2022-08-21T05:42:48;102190.75;;;18.80;100.00
13732;BME280;6937;56.096;12.664;2022-08-21T05:45:13;102070.63;;;18.91;100.00
13732;BME280;6937;56.096;12.664;2022-08-21T05:47:39;101922.19;;;18.95;100.00
13732;BME280;6937;56.096;12.664;2022-08-21T05:50:05;101816.78;;;19.01;100.00
13732;BME280;6937;56.096;12.664;2022-08-21T05:52:31;101629.72;;;18.83;100.00
13732;BME280;6937;56.096;12.664;2022-08-21T05:54:56;101571.38;;;18.99;100.00
13732;BME280;6937;56.096;12.664;2022-08-21T05:57:22;101454.94;;;18.89;100.00
13732;BME280;6937;56.096;12.664;2022-08-21T05:59:49;101396.88;;;18.92;100.00
13732;BME280;6937;56.096;12.664;2022-08-21T06:02:17;101300.66;;;18.88;100.00
13732;BME280;6937;56.096;12.664;2022-08-21T06:04:43;101258.28;;;18.96;100.00
13732;BME280;6937;56.096;12.664;2022-08-21T06:07:08;101213.31;;;19.03;100.00
13732;BME280;6937;56.096;12.664;2022-08-21T06:09:34;101186.97;;;19.13;100.00
13732;BME280;6937;56.096;12.664;2022-08-21T06:12:07;101106.91;;;19.19;100.00
13732;BME280;6937;56.096;12.664;2022-08-21T06:14:34;101074.66;;;19.08;100.00
13732;BME280;6937;56.096;12.664;2022-08-21T06:17:08;100984.06;;;19.10;100.00
13732;BME280;6937;56.096;12.664;2022-08-21T06:19:34;100955.78;;;19.13;100.00
13732;BME280;6937;56.096;12.664;2022-08-21T06:21:59;100930.06;;;19.17;100.00
13732;BME280;6937;56.096;12.664;2022-08-21T06:24:25;100933.69;;;19.25;100.00
13732;BME280;6937;56.096;12.664;2022-08-21T06:26:52;100902.72;;;19.36;100.00
13732;BME280;6937;56.096;12.664;2022-08-21T06:29:18;100884.47;;;19.46;100.00
13732;BME280;6937;56.096;12.664;2022-08-21T06:31:46;100855.50;;;19.47;100.00
13732;BME280;6937;56.096;12.664;2022-08-21T06:34:11;100817.75;;;19.45;100.00
13732;BME280;6937;56.096;12.664;2022-08-21T06:36:36;100825.03;;;19.53;100.00
13732;BME280;6937;56.096;12.664;2022-08-21T06:39:03;100804.53;;;19.58;100.00
13732;BME280;6937;56.096;12.664;2022-08-21T06:41:28;100793.34;;;19.69;100.00
13732;BME280;6937;56.096;12.664;2022-08-21T06:43:55;100774.38;;;19.69;100.00
13732;BME280;6937;56.096;12.664;2022-08-21T06:46:21;100771.50;;;19.71;100.00
13732;BME280;6937;56.096;12.664;2022-08-21T06:48:47;100743.53;;;19.62;100.00
13732;BME280;6937;56.096;12.664;2022-08-21T06:51:12;100753.34;;;19.63;100.00
13732;BME280;6937;56.096;12.664;2022-08-21T06:53:38;100757.59;;;19.66;100.00
13732;BME280;6937;56.096;12.664;2022-08-21T06:56:03;100771.31;;;19.72;100.00
13732;BME280;6937;56.096;12.664;2022-08-21T06:58:29;100789.63;;;19.87;100.00
13732;BME280;6937;56.096;12.664;2022-08-21T07:00:56;100774.03;;;19.89;100.00
13732;BME280;6937;56.096;12.664;2022-08-21T07:03:27;100775.03;;;19.96;100.00
13732;BME280;6937;56.096;12.664;2022-08-21T07:05:54;100784.53;;;20.00;100.00
13732;BME280;6937;56.096;12.664;2022-08-21T07:08:20;100754.53;;;19.93;100.00
13732;BME280;6937;56.096;12.664;2022-08-21T07:10:47;100750.81;;;19.94;100.00
13732;BME280;6937;56.096;12.664;2022-08-21T07:13:13;100757.22;;;20.09;100.00
13732;BME280;6937;56.096;12.664;2022-08-21T07:15:39;100758.22;;;20.08;100.00
13732;BME280;6937;56.096;12.664;2022-08-21T07:18:04;100760.59;;;20.03;100.00
13732;BME280;6937;56.096;12.664;2022-08-21T07:20:30;100776.38;;;20.00;100.00
13732;BME280;6937;56.096;12.664;2022-08-21T07:22:58;100780.78;;;20.09;100.00
13732;BME280;6937;56.096;12.664;2022-08-21T07:25:24;100771.59;;;20.10;100.00
13732;BME280;6937;56.096;12.664;2022-08-21T07:27:50;100802.66;;;20.15;100.00
13732;BME280;6937;56.096;12.664;2022-08-21T07:30:15;100820.78;;;20.23;100.00
13732;BME280;6937;56.096;12.664;2022-08-21T07:32:41;100803.50;;;20.32;100.00
13732;BME280;6937;56.096;12.664;2022-08-21T07:35:06;100805.88;;;20.27;100.00
13732;BME280;6937;56.096;12.664;2022-08-21T07:37:32;100821.16;;;20.28;100.00
13732;BME280;6937;56.096;12.664;2022-08-21T07:39:57;100830.81;;;20.31;100.00
13732;BME280;6937;56.096;12.664;2022-08-21T07:42:23;100814.34;;;20.32;100.00
13732;BME280;6937;56.096;12.664;2022-08-21T07:44:48;100807.59;;;20.12;100.00
13732;BME280;6937;56.096;12.664;2022-08-21T07:47:14;100820.81;;;20.15;100.00
13732;BME280;6937;56.096;12.664;2022-08-21T07:49:39;100865.94;;;20.24;100.00
13732;BME280;6937;56.096;12.664;2022-08-21T07:52:05;100876.47;;;20.35;100.00
13732;BME280;6937;56.096;12.664;2022-08-21T07:54:30;100881.53;;;20.46;100.00
13732;BME280;6937;56.096;12.664;2022-08-21T07:56:55;100879.31;;;20.58;100.00
13732;BME280;6937;56.096;12.664;2022-08-21T07:59:21;100887.78;;;20.71;100.00
13732;BME280;6937;56.096;12.664;2022-08-21T08:01:46;100843.66;;;20.69;100.00
13732;BME280;6937;56.096;12.664;2022-08-21T08:04:12;100841.25;;;20.66;100.00
13732;BME280;6937;56.096;12.664;2022-08-21T08:06:37;100850.75;;;20.70;100.00
13732;BME280;6937;56.096;12.664;2022-08-21T08:09:02;100863.44;;;20.86;100.00
13732;BME280;6937;56.096;12.664;2022-08-21T08:11:29;100828.97;;;20.86;100.00
13732;BME280;6937;56.096;12.664;2022-08-21T08:13:55;100832.69;;;20.85;100.00
13732;BME280;6937;56.096;12.664;2022-08-21T08:16:22;100811.06;;;20.69;100.00
13732;BME280;6937;56.096;12.664;2022-08-21T08:18:48;100842.22;;;20.81;100.00
13732;BME280;6937;56.096;12.664;2022-08-21T08:21:13;100893.28;;;21.02;100.00
13732;BME280;6937;56.096;12.664;2022-08-21T08:23:39;100896.78;;;21.27;100.00
13732;BME280;6937;56.096;12.664;2022-08-21T08:29:25;100914.59;;;21.99;100.00
13732;BME280;6937;56.096;12.664;2022-08-21T08:31:50;100917.50;;;22.35;100.00
13732;BME280;6937;56.096;12.664;2022-08-21T08:34:16;100869.34;;;22.35;100.00
13732;BME280;6937;56.096;12.664;2022-08-21T08:36:41;100887.88;;;22.54;100.00
13732;BME280;6937;56.096;12.664;2022-08-21T08:39:07;100867.03;;;22.61;100.00
13732;BME280;6937;56.096;12.664;2022-08-21T08:41:32;100853.88;;;22.50;100.00
13732;BME280;6937;56.096;12.664;2022-08-21T08:44:02;100840.91;;;22.38;100.00
13732;BME280;6937;56.096;12.664;2022-08-21T08:46:44;100900.50;;;22.55;100.00
13732;BME280;6937;56.096;12.664;2022-08-21T08:49:13;100863.66;;;22.59;100.00
13732;BME280;6937;56.096;12.664;2022-08-21T08:51:46;100876.34;;;22.52;100.00
13732;BME280;6937;56.096;12.664;2022-08-21T08:54:21;100895.38;;;22.75;100.00
13732;BME280;6937;56.096;12.664;2022-08-21T08:56:51;100933.19;;;23.07;100.00
13732;BME280;6937;56.096;12.664;2022-08-21T08:59:24;100923.28;;;23.21;100.00
13732;BME280;6937;56.096;12.664;2022-08-21T09:01:52;100897.44;;;23.02;100.00
13732;BME280;6937;56.096;12.664;2022-08-21T09:04:22;100895.94;;;22.85;100.00
13732;BME280;6937;56.096;12.664;2022-08-21T09:09:48;100952.56;;;23.13;100.00
13732;BME280;6937;56.096;12.664;2022-08-21T09:12:25;100975.50;;;23.33;100.00
13732;BME280;6937;56.096;12.664;2022-08-21T09:15:27;100942.75;;;23.33;100.00
13732;BME280;6937;56.096;12.664;2022-08-21T09:20:38;100909.78;;;23.28;100.00
13732;BME280;6937;56.096;12.664;2022-08-21T09:26:17;100974.06;;;23.66;100.00
13732;BME280;6937;56.096;12.664;2022-08-21T09:28:44;100969.72;;;23.86;100.00
13732;BME280;6937;56.096;12.664;2022-08-21T09:31:26;100935.72;;;23.89;100.00
13732;BME280;6937;56.096;12.664;2022-08-21T09:34:09;100947.69;;;23.88;100.00
13732;BME280;6937;56.096;12.664;2022-08-21T09:36:41;100929.84;;;23.71;100.00
13732;BME280;6937;56.096;12.664;2022-08-21T09:39:07;100955.81;;;23.67;100.00
13732;BME280;6937;56.096;12.664;2022-08-21T09:41:35;100927.72;;;23.51;100.00
13732;BME280;6937;56.096;12.664;2022-08-21T09:44:02;100899.22;;;23.25;100.00
13732;BME280;6937;56.096;12.664;2022-08-21T09:46:28;100963.09;;;23.30;100.00
13732;BME280;6937;56.096;12.664;2022-08-21T09:48:55;100953.19;;;23.29;100.00
13732;BME280;6937;56.096;12.664;2022-08-21T09:51:34;100997.22;;;23.41;100.00
13732;BME280;6937;56.096;12.664;2022-08-21T09:56:50;101002.59;;;23.64;100.00
13732;BME280;6937;56.096;12.664;2022-08-21T09:59:36;101131.25;;;23.90;100.00
13732;BME280;6937;56.096;12.664;2022-08-21T10:02:32;101122.97;;;23.98;100.00
13732;BME280;6937;56.096;12.664;2022-08-21T10:05:04;101040.53;;;23.88;100.00
13732;BME280;6937;56.096;12.664;2022-08-21T10:07:35;101031.09;;;23.90;100.00
13732;BME280;6937;56.096;12.664;2022-08-21T10:12:34;101050.06;;;24.13;100.00
13732;BME280;6937;56.096;12.664;2022-08-21T10:34:46;100932.16;;;23.08;100.00
13732;BME280;6937;56.096;12.664;2022-08-21T10:37:26;100978.13;;;23.11;100.00
13732;BME280;6937;56.096;12.664;2022-08-21T10:40:22;101013.03;;;23.16;100.00
13732;BME280;6937;56.096;12.664;2022-08-21T10:43:30;101062.84;;;23.25;100.00
13732;BME280;6937;56.096;12.664;2022-08-21T10:46:21;101136.56;;;23.39;100.00
13732;BME280;6937;56.096;12.664;2022-08-21T10:49:03;101085.44;;;23.33;100.00
13732;BME280;6937;56.096;12.664;2022-08-21T10:51:44;101195.25;;;23.58;100.00
13732;BME280;6937;56.096;12.664;2022-08-21T10:54:49;101030.25;;;23.31;100.00
13732;BME280;6937;56.096;12.664;2022-08-21T10:57:47;101041.78;;;23.19;100.00
13732;BME280;6937;56.096;12.664;2022-08-21T11:00:23;101097.50;;;23.24;100.00
13732;BME280;6937;56.096;12.664;2022-08-21T11:03:12;101161.53;;;23.51;100.00
13732;BME280;6937;56.096;12.664;2022-08-21T11:05:43;101109.41;;;23.46;100.00
13732;BME280;6937;56.096;12.664;2022-08-21T11:08:41;101241.97;;;23.78;100.00
13732;BME280;6937;56.096;12.664;2022-08-21T11:11:26;101233.53;;;23.87;100.00
13732;BME280;6937;56.096;12.664;2022-08-21T11:13:58;101279.69;;;24.12;100.00
13732;BME280;6937;56.096;12.664;2022-08-21T11:19:15;101114.88;;;23.61;100.00
13732;BME280;6937;56.096;12.664;2022-08-21T11:21:48;101311.44;;;24.13;100.00
13732;BME280;6937;56.096;12.664;2022-08-21T11:24:39;101326.56;;;24.38;100.00
13732;BME280;6937;56.096;12.664;2022-08-21T11:27:29;101305.66;;;24.45;100.00
13732;BME280;6937;56.096;12.664;2022-08-21T11:29:59;101430.41;;;24.90;100.00
13732;BME280;6937;56.096;12.664;2022-08-21T11:32:54;101414.03;;;25.19;100.00
13732;BME280;6937;56.096;12.664;2022-08-21T11:38:28;101365.81;;;25.54;100.00
13732;BME280;6937;56.096;12.664;2022-08-21T11:43:46;101305.59;;;25.54;100.00
13732;BME280;6937;56.096;12.664;2022-08-21T11:52:39;101351.28;;;25.96;100.00
13732;BME280;6937;56.096;12.664;2022-08-21T11:55:16;101264.09;;;25.72;100.00
13732;BME280;6937;56.096;12.664;2022-08-21T11:57:55;101342.03;;;25.97;100.00
13732;BME280;6937;56.096;12.664;2022-08-21T12:00:28;101301.34;;;25.94;100.00
13732;BME280;6937;56.096;12.664;2022-08-21T12:02:58;101292.69;;;25.90;100.00
13732;BME280;6937;56.096;12.664;2022-08-21T12:05:32;101332.56;;;26.00;100.00
13732;BME280;6937;56.096;12.664;2022-08-21T12:13:31;101390.44;;;26.60;100.00
13732;BME280;6937;56.096;12.664;2022-08-21T12:16:14;101402.13;;;26.75;100.00
13732;BME280;6937;56.096;12.664;2022-08-21T12:18:42;101424.25;;;26.95;100.00
13732;BME280;6937;56.096;12.664;2022-08-21T12:24:00;101354.84;;;27.08;100.00
13732;BME280;6937;56.096;12.664;2022-08-21T12:26:57;101346.84;;;27.06;100.00
13732;BME280;6937;56.096;12.664;2022-08-21T12:29:35;101364.84;;;27.22;100.00
13732;BME280;6937;56.096;12.664;2022-08-21T12:34:45;101172.75;;;25.58;100.00
13732;BME280;6937;56.096;12.664;2022-08-21T12:39:47;101351.75;;;25.07;100.00
13732;BME280;6937;56.096;12.664;2022-08-21T12:42:24;101422.41;;;25.18;100.00
13732;BME280;6937;56.096;12.664;2022-08-21T12:44:57;101478.16;;;25.31;100.00
13732;BME280;6937;56.096;12.664;2022-08-21T12:47:45;101608.66;;;25.83;100.00
13732;BME280;6937;56.096;12.664;2022-08-21T12:50:15;101655.44;;;26.17;100.00
13732;BME280;6937;56.096;12.664;2022-08-21T12:52:54;101619.94;;;26.38;100.00
13732;BME280;6937;56.096;12.664;2022-08-21T12:55:29;101494.34;;;26.27;100.00
13732;BME280;6937;56.096;12.664;2022-08-21T12:57:56;101481.22;;;26.23;100.00
13732;BME280;6937;56.096;12.664;2022-08-21T13:00:23;101448.50;;;26.21;100.00
13732;BME280;6937;56.096;12.664;2022-08-21T13:02:50;101488.50;;;26.37;100.00
13732;BME280;6937;56.096;12.664;2022-08-21T13:05:29;101415.00;;;26.19;100.00
13732;BME280;6937;56.096;12.664;2022-08-21T13:07:56;101497.06;;;26.27;100.00
13732;BME280;6937;56.096;12.664;2022-08-21T13:10:28;101535.91;;;26.52;100.00
13732;BME280;6937;56.096;12.664;2022-08-21T13:13:00;101469.66;;;26.49;100.00
13732;BME280;6937;56.096;12.664;2022-08-21T13:15:32;101397.97;;;26.24;100.00
13732;BME280;6937;56.096;12.664;2022-08-21T13:17:58;101348.97;;;25.72;100.00
13732;BME280;6937;56.096;12.664;2022-08-21T13:20:33;101377.56;;;25.33;100.00
13732;BME280;6937;56.096;12.664;2022-08-21T13:23:01;101484.00;;;25.43;100.00
13732;BME280;6937;56.096;12.664;2022-08-21T13:25:29;101524.22;;;25.57;100.00
13732;BME280;6937;56.096;12.664;2022-08-21T13:28:03;101501.28;;;25.58;100.00
13732;BME280;6937;56.096;12.664;2022-08-21T13:30:29;101433.88;;;25.42;100.00
13732;BME280;6937;56.096;12.664;2022-08-21T13:32:58;101506.13;;;25.56;100.00
13732;BME280;6937;56.096;12.664;2022-08-21T13:38:20;101677.38;;;26.17;100.00
13732;BME280;6937;56.096;12.664;2022-08-21T13:41:05;101670.16;;;26.24;100.00
13732;BME280;6937;56.096;12.664;2022-08-21T13:43:36;101651.44;;;26.28;100.00
13732;BME280;6937;56.096;12.664;2022-08-21T13:46:07;101745.69;;;26.63;100.00
13732;BME280;6937;56.096;12.664;2022-08-21T13:48:35;101656.25;;;26.62;100.00
13732;BME280;6937;56.096;12.664;2022-08-21T13:51:01;101560.13;;;26.49;100.00
13732;BME280;6937;56.096;12.664;2022-08-21T13:53:36;101441.81;;;26.24;100.00
13732;BME280;6937;56.096;12.664;2022-08-21T13:56:33;101382.47;;;25.95;100.00
13732;BME280;6937;56.096;12.664;2022-08-21T13:58:59;101484.63;;;26.10;100.00
13732;BME280;6937;56.096;12.664;2022-08-21T14:01:35;101532.25;;;26.24;100.00